sensor_id;sensor_type;location;lat;lon;timestamp;P1;durP1;ratioP1;P2;durP2;ratioP2
16975;SDS011;8604;48.148;-1.786;2023-02-13T00:00:05;19.33;;;12.90;;
16975;SDS011;8604;48.148;-1.786;2023-02-13T00:02:35;21.60;;;13.80;;
16975;SDS011;8604;48.148;-1.786;2023-02-13T00:05:04;18.93;;;12.63;;
16975;SDS011;8604;48.148;-1.786;2023-02-13T00:07:33;18.93;;;13.37;;
16975;SDS011;8604;48.148;-1.786;2023-02-13T00:10:05;18.50;;;12.37;;
16975;SDS011;8604;48.148;-1.786;2023-02-13T00:12:35;20.10;;;13.97;;
16975;SDS011;8604;48.148;-1.786;2023-02-13T00:15:04;19.43;;;13.63;;
16975;SDS011;8604;48.148;-1.786;2023-02-13T00:17:33;19.53;;;12.90;;
16975;SDS011;8604;48.148;-1.786;2023-02-13T00:20:02;20.53;;;13.03;;
16975;SDS011;8604;48.148;-1.786;2023-02-13T00:22:33;18.20;;;12.90;;
16975;SDS011;8604;48.148;-1.786;2023-02-13T00:25:02;16.93;;;11.60;;
16975;SDS011;8604;48.148;-1.786;2023-02-13T00:27:32;17.47;;;12.20;;
16975;SDS011;8604;48.148;-1.786;2023-02-13T00:30:02;15.30;;;10.60;;
16975;SDS011;8604;48.148;-1.786;2023-02-13T00:32:32;18.20;;;12.57;;
16975;SDS011;8604;48.148;-1.786;2023-02-13T00:35:00;17.23;;;12.23;;
16975;SDS011;8604;48.148;-1.786;2023-02-13T00:37:32;21.90;;;14.10;;
16975;SDS011;8604;48.148;-1.786;2023-02-13T00:40:01;18.17;;;12.77;;
16975;SDS011;8604;48.148;-1.786;2023-02-13T00:42:31;19.70;;;12.47;;
16975;SDS011;8604;48.148;-1.786;2023-02-13T00:45:00;19.40;;;13.17;;
16975;SDS011;8604;48.148;-1.786;2023-02-13T00:47:33;20.80;;;12.93;;
16975;SDS011;8604;48.148;-1.786;2023-02-13T00:50:01;18.33;;;13.10;;
16975;SDS011;8604;48.148;-1.786;2023-02-13T00:52:34;20.07;;;13.47;;
16975;SDS011;8604;48.148;-1.786;2023-02-13T00:55:02;19.93;;;14.00;;
16975;SDS011;8604;48.148;-1.786;2023-02-13T00:57:31;20.30;;;13.93;;
16975;SDS011;8604;48.148;-1.786;2023-02-13T01:00:00;20.63;;;14.63;;
16975;SDS011;8604;48.148;-1.786;2023-02-13T01:02:32;21.73;;;14.90;;
16975;SDS011;8604;48.148;-1.786;2023-02-13T01:05:03;19.50;;;13.53;;
16975;SDS011;8604;48.148;-1.786;2023-02-13T01:07:32;20.37;;;13.93;;
16975;SDS011;8604;48.148;-1.786;2023-02-13T01:10:01;19.40;;;12.87;;
16975;SDS011;8604;48.148;-1.786;2023-02-13T01:12:30;18.50;;;13.13;;
16975;SDS011;8604;48.148;-1.786;2023-02-13T01:14:59;18.83;;;12.73;;
16975;SDS011;8604;48.148;-1.786;2023-02-13T01:17:27;18.53;;;14.00;;
16975;SDS011;8604;48.148;-1.786;2023-02-13T01:19:57;21.30;;;14.07;;
16975;SDS011;8604;48.148;-1.786;2023-02-13T01:22:26;20.90;;;14.17;;
16975;SDS011;8604;48.148;-1.786;2023-02-13T01:24:54;20.33;;;13.87;;
16975;SDS011;8604;48.148;-1.786;2023-02-13T01:27:29;21.60;;;14.30;;
16975;SDS011;8604;48.148;-1.786;2023-02-13T01:29:58;22.07;;;15.07;;
16975;SDS011;8604;48.148;-1.786;2023-02-13T01:32:29;21.47;;;14.23;;
16975;SDS011;8604;48.148;-1.786;2023-02-13T01:34:58;21.07;;;14.43;;
16975;SDS011;8604;48.148;-1.786;2023-02-13T01:37:27;19.83;;;14.20;;
16975;SDS011;8604;48.148;-1.786;2023-02-13T01:39:57;19.30;;;13.40;;
16975;SDS011;8604;48.148;-1.786;2023-02-13T01:42:27;21.50;;;14.70;;
16975;SDS011;8604;48.148;-1.786;2023-02-13T01:44:58;21.73;;;15.03;;
16975;SDS011;8604;48.148;-1.786;2023-02-13T01:47:31;20.17;;;14.10;;
16975;SDS011;8604;48.148;-1.786;2023-02-13T01:50:10;20.17;;;13.73;;
16975;SDS011;8604;48.148;-1.786;2023-02-13T01:52:45;21.77;;;13.47;;
16975;SDS011;8604;48.148;-1.786;2023-02-13T01:55:17;19.13;;;13.63;;
16975;SDS011;8604;48.148;-1.786;2023-02-13T01:57:47;18.47;;;12.97;;
16975;SDS011;8604;48.148;-1.786;2023-02-13T02:00:20;21.20;;;13.50;;
16975;SDS011;8604;48.148;-1.786;2023-02-13T02:02:49;19.90;;;13.57;;
16975;SDS011;8604;48.148;-1.786;2023-02-13T02:05:25;21.50;;;13.73;;
16975;SDS011;8604;48.148;-1.786;2023-02-13T02:07:55;19.20;;;13.27;;
16975;SDS011;8604;48.148;-1.786;2023-02-13T02:10:27;18.73;;;13.20;;
16975;SDS011;8604;48.148;-1.786;2023-02-13T02:13:00;19.90;;;13.17;;
16975;SDS011;8604;48.148;-1.786;2023-02-13T02:15:34;19.30;;;13.37;;
16975;SDS011;8604;48.148;-1.786;2023-02-13T02:18:03;21.00;;;14.43;;
16975;SDS011;8604;48.148;-1.786;2023-02-13T02:20:42;20.07;;;13.47;;
16975;SDS011;8604;48.148;-1.786;2023-02-13T02:23:29;21.10;;;14.13;;
16975;SDS011;8604;48.148;-1.786;2023-02-13T02:26:29;23.67;;;14.40;;
16975;SDS011;8604;48.148;-1.786;2023-02-13T02:29:37;22.80;;;13.90;;
16975;SDS011;8604;48.148;-1.786;2023-02-13T02:32:31;23.33;;;13.83;;
16975;SDS011;8604;48.148;-1.786;2023-02-13T02:35:17;18.47;;;12.97;;
16975;SDS011;8604;48.148;-1.786;2023-02-13T02:37:57;20.33;;;13.40;;
16975;SDS011;8604;48.148;-1.786;2023-02-13T02:40:36;20.13;;;12.93;;
16975;SDS011;8604;48.148;-1.786;2023-02-13T02:43:16;19.40;;;12.70;;
16975;SDS011;8604;48.148;-1.786;2023-02-13T02:45:58;19.57;;;12.83;;
16975;SDS011;8604;48.148;-1.786;2023-02-13T02:48:37;19.37;;;13.03;;
16975;SDS011;8604;48.148;-1.786;2023-02-13T02:51:29;17.60;;;12.27;;
16975;SDS011;8604;48.148;-1.786;2023-02-13T02:54:08;18.67;;;12.33;;
16975;SDS011;8604;48.148;-1.786;2023-02-13T02:57:06;17.80;;;11.70;;
16975;SDS011;8604;48.148;-1.786;2023-02-13T02:59:41;18.30;;;12.40;;
16975;SDS011;8604;48.148;-1.786;2023-02-13T03:02:30;20.87;;;12.40;;
16975;SDS011;8604;48.148;-1.786;2023-02-13T03:05:21;20.77;;;13.67;;
16975;SDS011;8604;48.148;-1.786;2023-02-13T03:08:11;18.77;;;12.57;;
16975;SDS011;8604;48.148;-1.786;2023-02-13T03:10:40;21.30;;;12.80;;
16975;SDS011;8604;48.148;-1.786;2023-02-13T03:13:30;18.87;;;12.47;;
16975;SDS011;8604;48.148;-1.786;2023-02-13T03:16:05;19.37;;;12.97;;
16975;SDS011;8604;48.148;-1.786;2023-02-13T03:18:59;16.77;;;11.73;;
16975;SDS011;8604;48.148;-1.786;2023-02-13T03:21:49;18.60;;;12.70;;
16975;SDS011;8604;48.148;-1.786;2023-02-13T03:24:42;17.27;;;12.00;;
16975;SDS011;8604;48.148;-1.786;2023-02-13T03:27:19;19.07;;;13.00;;
16975;SDS011;8604;48.148;-1.786;2023-02-13T03:30:12;18.20;;;12.90;;
16975;SDS011;8604;48.148;-1.786;2023-02-13T03:32:46;19.37;;;12.90;;
16975;SDS011;8604;48.148;-1.786;2023-02-13T03:35:28;17.70;;;11.93;;
16975;SDS011;8604;48.148;-1.786;2023-02-13T03:38:21;20.00;;;12.50;;
16975;SDS011;8604;48.148;-1.786;2023-02-13T03:40:56;19.23;;;13.07;;
16975;SDS011;8604;48.148;-1.786;2023-02-13T03:43:51;17.97;;;12.40;;
16975;SDS011;8604;48.148;-1.786;2023-02-13T03:46:27;17.33;;;11.90;;
16975;SDS011;8604;48.148;-1.786;2023-02-13T03:49:00;18.17;;;12.73;;
16975;SDS011;8604;48.148;-1.786;2023-02-13T03:51:49;19.10;;;12.83;;
16975;SDS011;8604;48.148;-1.786;2023-02-13T03:54:29;19.53;;;13.13;;
16975;SDS011;8604;48.148;-1.786;2023-02-13T03:57:24;16.70;;;11.93;;
16975;SDS011;8604;48.148;-1.786;2023-02-13T04:00:14;18.50;;;12.03;;
16975;SDS011;8604;48.148;-1.786;2023-02-13T04:02:47;18.07;;;11.63;;
16975;SDS011;8604;48.148;-1.786;2023-02-13T04:05:22;17.77;;;11.67;;
16975;SDS011;8604;48.148;-1.786;2023-02-13T04:07:54;17.33;;;11.63;;
16975;SDS011;8604;48.148;-1.786;2023-02-13T04:10:24;16.73;;;11.77;;
16975;SDS011;8604;48.148;-1.786;2023-02-13T04:12:59;16.27;;;11.40;;
16975;SDS011;8604;48.148;-1.786;2023-02-13T04:15:35;16.07;;;11.23;;
16975;SDS011;8604;48.148;-1.786;2023-02-13T04:18:08;16.50;;;11.47;;
16975;SDS011;8604;48.148;-1.786;2023-02-13T04:20:40;16.90;;;11.60;;
16975;SDS011;8604;48.148;-1.786;2023-02-13T04:23:09;17.63;;;11.73;;
16975;SDS011;8604;48.148;-1.786;2023-02-13T04:25:42;19.17;;;11.80;;
16975;SDS011;8604;48.148;-1.786;2023-02-13T04:28:13;17.33;;;11.47;;
16975;SDS011;8604;48.148;-1.786;2023-02-13T04:30:42;17.43;;;11.43;;
16975;SDS011;8604;48.148;-1.786;2023-02-13T04:33:11;16.37;;;11.57;;
16975;SDS011;8604;48.148;-1.786;2023-02-13T04:35:39;17.93;;;12.00;;
16975;SDS011;8604;48.148;-1.786;2023-02-13T04:38:08;19.83;;;13.03;;
16975;SDS011;8604;48.148;-1.786;2023-02-13T04:40:36;17.47;;;11.77;;
16975;SDS011;8604;48.148;-1.786;2023-02-13T04:43:06;18.97;;;12.80;;
16975;SDS011;8604;48.148;-1.786;2023-02-13T04:45:34;17.00;;;11.53;;
16975;SDS011;8604;48.148;-1.786;2023-02-13T04:48:06;15.60;;;10.80;;
16975;SDS011;8604;48.148;-1.786;2023-02-13T04:50:35;15.87;;;10.87;;
16975;SDS011;8604;48.148;-1.786;2023-02-13T04:53:03;15.77;;;10.77;;
16975;SDS011;8604;48.148;-1.786;2023-02-13T04:55:32;15.60;;;11.33;;
16975;SDS011;8604;48.148;-1.786;2023-02-13T04:58:03;16.50;;;10.90;;
16975;SDS011;8604;48.148;-1.786;2023-02-13T05:00:35;14.23;;;10.53;;
16975;SDS011;8604;48.148;-1.786;2023-02-13T05:03:04;16.93;;;11.20;;
16975;SDS011;8604;48.148;-1.786;2023-02-13T05:05:34;14.43;;;10.30;;
16975;SDS011;8604;48.148;-1.786;2023-02-13T05:08:04;14.93;;;10.43;;
16975;SDS011;8604;48.148;-1.786;2023-02-13T05:10:34;15.87;;;10.83;;
16975;SDS011;8604;48.148;-1.786;2023-02-13T05:13:03;14.30;;;9.97;;
16975;SDS011;8604;48.148;-1.786;2023-02-13T05:15:33;15.07;;;9.93;;
16975;SDS011;8604;48.148;-1.786;2023-02-13T05:18:02;13.67;;;9.73;;
16975;SDS011;8604;48.148;-1.786;2023-02-13T05:20:34;15.03;;;10.30;;
16975;SDS011;8604;48.148;-1.786;2023-02-13T05:23:02;14.47;;;10.20;;
16975;SDS011;8604;48.148;-1.786;2023-02-13T05:25:50;16.00;;;10.77;;
16975;SDS011;8604;48.148;-1.786;2023-02-13T05:28:19;15.73;;;11.03;;
16975;SDS011;8604;48.148;-1.786;2023-02-13T05:31:07;17.07;;;10.87;;
16975;SDS011;8604;48.148;-1.786;2023-02-13T05:33:35;17.27;;;10.87;;
16975;SDS011;8604;48.148;-1.786;2023-02-13T05:36:04;15.07;;;10.50;;
16975;SDS011;8604;48.148;-1.786;2023-02-13T05:38:33;14.40;;;10.17;;
16975;SDS011;8604;48.148;-1.786;2023-02-13T05:41:02;16.40;;;9.90;;
16975;SDS011;8604;48.148;-1.786;2023-02-13T05:43:33;16.73;;;10.20;;
16975;SDS011;8604;48.148;-1.786;2023-02-13T05:46:02;15.70;;;10.60;;
16975;SDS011;8604;48.148;-1.786;2023-02-13T05:48:33;15.30;;;9.80;;
16975;SDS011;8604;48.148;-1.786;2023-02-13T05:51:03;15.77;;;10.73;;
16975;SDS011;8604;48.148;-1.786;2023-02-13T05:53:32;14.90;;;9.77;;
16975;SDS011;8604;48.148;-1.786;2023-02-13T05:56:04;14.53;;;9.97;;
16975;SDS011;8604;48.148;-1.786;2023-02-13T05:58:35;15.10;;;9.83;;
16975;SDS011;8604;48.148;-1.786;2023-02-13T06:01:16;18.60;;;10.93;;
16975;SDS011;8604;48.148;-1.786;2023-02-13T06:03:46;18.47;;;11.33;;
16975;SDS011;8604;48.148;-1.786;2023-02-13T06:06:14;21.83;;;12.90;;
16975;SDS011;8604;48.148;-1.786;2023-02-13T06:08:43;24.83;;;13.73;;
16975;SDS011;8604;48.148;-1.786;2023-02-13T06:11:12;26.67;;;13.73;;
16975;SDS011;8604;48.148;-1.786;2023-02-13T06:13:40;25.63;;;13.77;;
16975;SDS011;8604;48.148;-1.786;2023-02-13T06:16:09;19.90;;;11.40;;
16975;SDS011;8604;48.148;-1.786;2023-02-13T06:18:38;21.40;;;12.07;;
16975;SDS011;8604;48.148;-1.786;2023-02-13T06:21:09;18.77;;;10.63;;
16975;SDS011;8604;48.148;-1.786;2023-02-13T06:23:37;19.17;;;11.63;;
16975;SDS011;8604;48.148;-1.786;2023-02-13T06:26:06;17.50;;;11.37;;
16975;SDS011;8604;48.148;-1.786;2023-02-13T06:28:36;17.80;;;10.37;;
16975;SDS011;8604;48.148;-1.786;2023-02-13T06:31:04;15.90;;;9.87;;
16975;SDS011;8604;48.148;-1.786;2023-02-13T06:33:33;15.27;;;9.33;;
16975;SDS011;8604;48.148;-1.786;2023-02-13T06:36:02;16.03;;;9.60;;
16975;SDS011;8604;48.148;-1.786;2023-02-13T06:38:33;17.33;;;9.10;;
16975;SDS011;8604;48.148;-1.786;2023-02-13T06:41:01;15.37;;;8.87;;
16975;SDS011;8604;48.148;-1.786;2023-02-13T06:43:32;22.83;;;11.13;;
16975;SDS011;8604;48.148;-1.786;2023-02-13T22:32:07;62.60;;;46.47;;
16975;SDS011;8604;48.148;-1.786;2023-02-13T22:34:35;82.67;;;56.57;;
16975;SDS011;8604;48.148;-1.786;2023-02-13T22:37:04;71.70;;;53.27;;
16975;SDS011;8604;48.148;-1.786;2023-02-13T22:39:33;62.50;;;45.33;;
16975;SDS011;8604;48.148;-1.786;2023-02-13T22:42:02;59.23;;;42.57;;
16975;SDS011;8604;48.148;-1.786;2023-02-13T22:44:31;63.87;;;45.27;;
16975;SDS011;8604;48.148;-1.786;2023-02-13T22:46:59;64.83;;;48.13;;
16975;SDS011;8604;48.148;-1.786;2023-02-13T22:49:29;59.77;;;43.83;;
16975;SDS011;8604;48.148;-1.786;2023-02-13T22:51:57;58.00;;;42.07;;
16975;SDS011;8604;48.148;-1.786;2023-02-13T22:54:27;60.17;;;42.80;;
16975;SDS011;8604;48.148;-1.786;2023-02-13T22:56:56;57.13;;;42.77;;
16975;SDS011;8604;48.148;-1.786;2023-02-13T22:59:24;59.27;;;41.07;;
16975;SDS011;8604;48.148;-1.786;2023-02-13T23:01:53;49.47;;;37.47;;
16975;SDS011;8604;48.148;-1.786;2023-02-13T23:04:21;51.23;;;36.27;;
16975;SDS011;8604;48.148;-1.786;2023-02-13T23:06:51;54.23;;;37.67;;
16975;SDS011;8604;48.148;-1.786;2023-02-13T23:09:20;54.57;;;37.87;;
16975;SDS011;8604;48.148;-1.786;2023-02-13T23:11:48;54.57;;;38.83;;
16975;SDS011;8604;48.148;-1.786;2023-02-13T23:14:34;54.00;;;38.37;;
16975;SDS011;8604;48.148;-1.786;2023-02-13T23:17:02;58.00;;;41.40;;
16975;SDS011;8604;48.148;-1.786;2023-02-13T23:19:48;59.37;;;42.77;;
16975;SDS011;8604;48.148;-1.786;2023-02-13T23:22:18;70.87;;;49.63;;
16975;SDS011;8604;48.148;-1.786;2023-02-13T23:24:47;66.00;;;47.27;;
16975;SDS011;8604;48.148;-1.786;2023-02-13T23:27:15;56.13;;;41.50;;
16975;SDS011;8604;48.148;-1.786;2023-02-13T23:29:43;57.37;;;40.83;;
16975;SDS011;8604;48.148;-1.786;2023-02-13T23:32:12;55.93;;;38.90;;
16975;SDS011;8604;48.148;-1.786;2023-02-13T23:34:40;52.97;;;39.33;;
16975;SDS011;8604;48.148;-1.786;2023-02-13T23:37:11;53.37;;;38.33;;
16975;SDS011;8604;48.148;-1.786;2023-02-13T23:39:42;52.23;;;36.80;;
16975;SDS011;8604;48.148;-1.786;2023-02-13T23:42:10;51.70;;;37.33;;
16975;SDS011;8604;48.148;-1.786;2023-02-13T23:44:39;51.90;;;35.63;;
16975;SDS011;8604;48.148;-1.786;2023-02-13T23:47:10;47.27;;;33.77;;
16975;SDS011;8604;48.148;-1.786;2023-02-13T23:49:42;45.43;;;33.10;;
16975;SDS011;8604;48.148;-1.786;2023-02-13T23:52:10;42.37;;;31.90;;
16975;SDS011;8604;48.148;-1.786;2023-02-13T23:54:44;41.83;;;31.53;;
16975;SDS011;8604;48.148;-1.786;2023-02-13T23:57:13;45.53;;;32.40;;
16975;SDS011;8604;48.148;-1.786;2023-02-13T23:59:43;54.27;;;39.07;;
